Elkhorn, West Virginia
Current Conditions -  °F | °C
As of 2:52 AM on Saturday 20 Dec 2014 (Local Time) from KBLF Reporting Station
Clear Clear  
Wind Chill: 19°   Ceiling: Unl
Heat Index: 25°   Visibility: 10mi
Dew Point: 21°   Wind: 5mph
Humidity: 85%   Direction: 90°E
Pressure: 30.13"   Gusts: NA
Location:  37.39°N, 81.41°W
Report Text: KBLF 200752Z AUTO 09004KT 10SM CLR M04/M06 A3013 RMK AO2 SLP221 T10391061
Loading
Personal Weather Stations






























Interactive Weather Map New forecast layout! Learn more

10-Day Weather Forecast

Advertisements
Track Severe Weather on mobile